sensor_id;sensor_type;location;lat;lon;timestamp;P1;durP1;ratioP1;P2;durP2;ratioP2
20476;SDS011;10397;50.948;11.092;2023-08-17T00:01:38;2.33;;;0.60;;
20476;SDS011;10397;50.948;11.092;2023-08-17T00:04:08;4.03;;;0.60;;
20476;SDS011;10397;50.948;11.092;2023-08-17T00:06:39;3.27;;;0.70;;
20476;SDS011;10397;50.948;11.092;2023-08-17T00:09:10;6.33;;;1.07;;
20476;SDS011;10397;50.948;11.092;2023-08-17T00:11:40;2.50;;;0.43;;
20476;SDS011;10397;50.948;11.092;2023-08-17T00:14:11;5.60;;;1.63;;
20476;SDS011;10397;50.948;11.092;2023-08-17T00:16:42;7.53;;;2.40;;
20476;SDS011;10397;50.948;11.092;2023-08-17T00:19:12;6.43;;;2.57;;
20476;SDS011;10397;50.948;11.092;2023-08-17T00:21:44;6.30;;;2.07;;
20476;SDS011;10397;50.948;11.092;2023-08-17T00:24:13;3.80;;;1.30;;
20476;SDS011;10397;50.948;11.092;2023-08-17T00:26:44;4.37;;;1.60;;
20476;SDS011;10397;50.948;11.092;2023-08-17T00:29:15;5.10;;;1.40;;
20476;SDS011;10397;50.948;11.092;2023-08-17T00:31:45;6.13;;;0.70;;
20476;SDS011;10397;50.948;11.092;2023-08-17T00:34:16;2.10;;;0.70;;
20476;SDS011;10397;50.948;11.092;2023-08-17T00:36:47;6.00;;;0.90;;
20476;SDS011;10397;50.948;11.092;2023-08-17T00:39:17;3.33;;;0.60;;
20476;SDS011;10397;50.948;11.092;2023-08-17T00:41:48;6.03;;;2.33;;
20476;SDS011;10397;50.948;11.092;2023-08-17T00:44:19;3.40;;;1.10;;
20476;SDS011;10397;50.948;11.092;2023-08-17T00:46:50;6.57;;;1.47;;
20476;SDS011;10397;50.948;11.092;2023-08-17T00:49:20;5.03;;;1.20;;
20476;SDS011;10397;50.948;11.092;2023-08-17T00:51:51;2.63;;;0.87;;
20476;SDS011;10397;50.948;11.092;2023-08-17T00:54:23;3.53;;;1.10;;
20476;SDS011;10397;50.948;11.092;2023-08-17T00:56:55;4.40;;;1.30;;
20476;SDS011;10397;50.948;11.092;2023-08-17T00:59:26;4.37;;;0.60;;
20476;SDS011;10397;50.948;11.092;2023-08-17T01:01:56;4.03;;;0.87;;
20476;SDS011;10397;50.948;11.092;2023-08-17T01:04:27;4.17;;;1.10;;
20476;SDS011;10397;50.948;11.092;2023-08-17T01:06:58;1.87;;;0.50;;
20476;SDS011;10397;50.948;11.092;2023-08-17T01:09:29;2.63;;;0.83;;
20476;SDS011;10397;50.948;11.092;2023-08-17T01:12:00;3.67;;;0.73;;
20476;SDS011;10397;50.948;11.092;2023-08-17T01:14:36;1.37;;;0.60;;
20476;SDS011;10397;50.948;11.092;2023-08-17T01:17:06;3.17;;;1.10;;
20476;SDS011;10397;50.948;11.092;2023-08-17T01:19:36;7.10;;;1.10;;
20476;SDS011;10397;50.948;11.092;2023-08-17T01:22:08;1.43;;;0.50;;
20476;SDS011;10397;50.948;11.092;2023-08-17T01:24:37;2.90;;;0.53;;
20476;SDS011;10397;50.948;11.092;2023-08-17T01:27:08;1.00;;;0.30;;
20476;SDS011;10397;50.948;11.092;2023-08-17T01:29:39;9.33;;;0.80;;
20476;SDS011;10397;50.948;11.092;2023-08-17T01:32:21;7.57;;;0.93;;
20476;SDS011;10397;50.948;11.092;2023-08-17T01:34:50;3.43;;;0.60;;
20476;SDS011;10397;50.948;11.092;2023-08-17T01:37:19;1.87;;;0.70;;
20476;SDS011;10397;50.948;11.092;2023-08-17T01:39:50;1.57;;;0.63;;
20476;SDS011;10397;50.948;11.092;2023-08-17T01:42:20;2.30;;;0.77;;
20476;SDS011;10397;50.948;11.092;2023-08-17T01:44:51;2.00;;;0.60;;
20476;SDS011;10397;50.948;11.092;2023-08-17T01:47:22;2.47;;;0.60;;
20476;SDS011;10397;50.948;11.092;2023-08-17T01:49:52;2.50;;;0.70;;
20476;SDS011;10397;50.948;11.092;2023-08-17T01:52:22;2.87;;;0.70;;
20476;SDS011;10397;50.948;11.092;2023-08-17T01:54:53;3.77;;;0.80;;
20476;SDS011;10397;50.948;11.092;2023-08-17T01:57:24;1.20;;;0.57;;
20476;SDS011;10397;50.948;11.092;2023-08-17T01:59:55;1.20;;;0.60;;
20476;SDS011;10397;50.948;11.092;2023-08-17T02:02:25;2.17;;;0.73;;
20476;SDS011;10397;50.948;11.092;2023-08-17T02:04:55;1.60;;;0.80;;
20476;SDS011;10397;50.948;11.092;2023-08-17T02:07:26;4.63;;;0.90;;
20476;SDS011;10397;50.948;11.092;2023-08-17T02:09:57;2.07;;;0.90;;
20476;SDS011;10397;50.948;11.092;2023-08-17T02:12:27;11.13;;;1.47;;
20476;SDS011;10397;50.948;11.092;2023-08-17T02:14:58;3.53;;;1.00;;
20476;SDS011;10397;50.948;11.092;2023-08-17T02:17:29;6.57;;;1.30;;
20476;SDS011;10397;50.948;11.092;2023-08-17T02:19:59;4.10;;;1.03;;
20476;SDS011;10397;50.948;11.092;2023-08-17T02:22:30;3.57;;;0.80;;
20476;SDS011;10397;50.948;11.092;2023-08-17T02:25:01;2.00;;;0.50;;
20476;SDS011;10397;50.948;11.092;2023-08-17T02:27:31;3.90;;;0.60;;
20476;SDS011;10397;50.948;11.092;2023-08-17T02:30:03;5.43;;;0.90;;
20476;SDS011;10397;50.948;11.092;2023-08-17T02:32:33;3.03;;;0.60;;
20476;SDS011;10397;50.948;11.092;2023-08-17T02:35:04;1.47;;;0.60;;
20476;SDS011;10397;50.948;11.092;2023-08-17T02:37:34;1.60;;;0.50;;
20476;SDS011;10397;50.948;11.092;2023-08-17T02:40:05;1.67;;;0.40;;
20476;SDS011;10397;50.948;11.092;2023-08-17T02:42:36;1.37;;;0.40;;
20476;SDS011;10397;50.948;11.092;2023-08-17T02:45:06;1.47;;;0.57;;
20476;SDS011;10397;50.948;11.092;2023-08-17T02:47:37;1.97;;;0.30;;
20476;SDS011;10397;50.948;11.092;2023-08-17T02:50:08;2.10;;;0.50;;
20476;SDS011;10397;50.948;11.092;2023-08-17T02:52:38;1.17;;;0.30;;
20476;SDS011;10397;50.948;11.092;2023-08-17T02:55:09;0.97;;;0.40;;
20476;SDS011;10397;50.948;11.092;2023-08-17T02:57:40;1.10;;;0.50;;
20476;SDS011;10397;50.948;11.092;2023-08-17T03:00:11;0.83;;;0.40;;
20476;SDS011;10397;50.948;11.092;2023-08-17T03:02:41;1.03;;;0.37;;
20476;SDS011;10397;50.948;11.092;2023-08-17T03:05:12;0.97;;;0.30;;
20476;SDS011;10397;50.948;11.092;2023-08-17T03:07:42;1.53;;;0.40;;
20476;SDS011;10397;50.948;11.092;2023-08-17T03:10:13;0.40;;;0.33;;
20476;SDS011;10397;50.948;11.092;2023-08-17T03:12:44;2.67;;;0.30;;
20476;SDS011;10397;50.948;11.092;2023-08-17T03:15:15;1.60;;;0.40;;
20476;SDS011;10397;50.948;11.092;2023-08-17T03:17:45;0.80;;;0.30;;
20476;SDS011;10397;50.948;11.092;2023-08-17T03:20:16;1.67;;;0.30;;
20476;SDS011;10397;50.948;11.092;2023-08-17T03:22:47;0.50;;;0.30;;
20476;SDS011;10397;50.948;11.092;2023-08-17T03:25:18;0.60;;;0.27;;
20476;SDS011;10397;50.948;11.092;2023-08-17T03:27:49;0.80;;;0.50;;
20476;SDS011;10397;50.948;11.092;2023-08-17T03:30:20;0.80;;;0.27;;
20476;SDS011;10397;50.948;11.092;2023-08-17T03:32:50;1.27;;;0.30;;
20476;SDS011;10397;50.948;11.092;2023-08-17T03:35:21;0.60;;;0.30;;
20476;SDS011;10397;50.948;11.092;2023-08-17T03:37:52;1.50;;;0.30;;
20476;SDS011;10397;50.948;11.092;2023-08-17T03:40:22;0.63;;;0.37;;
20476;SDS011;10397;50.948;11.092;2023-08-17T03:42:53;3.33;;;0.40;;
20476;SDS011;10397;50.948;11.092;2023-08-17T03:45:24;3.83;;;0.40;;
20476;SDS011;10397;50.948;11.092;2023-08-17T03:47:54;0.83;;;0.20;;
20476;SDS011;10397;50.948;11.092;2023-08-17T03:50:26;1.93;;;0.40;;
20476;SDS011;10397;50.948;11.092;2023-08-17T03:52:56;0.50;;;0.30;;
20476;SDS011;10397;50.948;11.092;2023-08-17T03:55:27;0.87;;;0.30;;
20476;SDS011;10397;50.948;11.092;2023-08-17T03:57:57;0.50;;;0.27;;
20476;SDS011;10397;50.948;11.092;2023-08-17T04:00:28;0.80;;;0.40;;
20476;SDS011;10397;50.948;11.092;2023-08-17T04:02:58;2.40;;;0.40;;
20476;SDS011;10397;50.948;11.092;2023-08-17T04:05:29;1.23;;;0.50;;
20476;SDS011;10397;50.948;11.092;2023-08-17T04:08:00;1.20;;;0.47;;
20476;SDS011;10397;50.948;11.092;2023-08-17T04:10:30;4.00;;;0.40;;
20476;SDS011;10397;50.948;11.092;2023-08-17T04:13:01;1.50;;;0.40;;
20476;SDS011;10397;50.948;11.092;2023-08-17T04:15:31;0.57;;;0.40;;
20476;SDS011;10397;50.948;11.092;2023-08-17T04:18:02;4.43;;;0.67;;
20476;SDS011;10397;50.948;11.092;2023-08-17T04:20:32;0.57;;;0.30;;
20476;SDS011;10397;50.948;11.092;2023-08-17T04:23:03;0.53;;;0.40;;
20476;SDS011;10397;50.948;11.092;2023-08-17T04:25:34;0.63;;;0.33;;
20476;SDS011;10397;50.948;11.092;2023-08-17T04:28:05;1.03;;;0.50;;
20476;SDS011;10397;50.948;11.092;2023-08-17T04:30:37;3.63;;;0.60;;
20476;SDS011;10397;50.948;11.092;2023-08-17T04:33:06;1.10;;;0.80;;
20476;SDS011;10397;50.948;11.092;2023-08-17T04:35:37;1.07;;;0.40;;
20476;SDS011;10397;50.948;11.092;2023-08-17T04:38:08;1.90;;;0.60;;
20476;SDS011;10397;50.948;11.092;2023-08-17T04:40:38;1.80;;;0.70;;
20476;SDS011;10397;50.948;11.092;2023-08-17T04:43:09;1.27;;;0.50;;
20476;SDS011;10397;50.948;11.092;2023-08-17T04:45:39;4.03;;;0.80;;
20476;SDS011;10397;50.948;11.092;2023-08-17T04:48:10;3.17;;;0.70;;
20476;SDS011;10397;50.948;11.092;2023-08-17T04:50:41;0.90;;;0.50;;
20476;SDS011;10397;50.948;11.092;2023-08-17T04:53:11;1.53;;;0.40;;
20476;SDS011;10397;50.948;11.092;2023-08-17T04:55:42;3.87;;;0.50;;
20476;SDS011;10397;50.948;11.092;2023-08-17T04:58:13;2.40;;;0.60;;
20476;SDS011;10397;50.948;11.092;2023-08-17T05:00:44;1.07;;;0.60;;
20476;SDS011;10397;50.948;11.092;2023-08-17T05:03:15;1.65;;;0.50;;
20476;SDS011;10397;50.948;11.092;2023-08-17T05:05:46;1.72;;;0.60;;
20476;SDS011;10397;50.948;11.092;2023-08-17T05:08:17;0.98;;;0.53;;
20476;SDS011;10397;50.948;11.092;2023-08-17T05:10:48;1.33;;;0.57;;
20476;SDS011;10397;50.948;11.092;2023-08-17T05:13:19;5.17;;;0.60;;
20476;SDS011;10397;50.948;11.092;2023-08-17T05:15:50;3.00;;;0.70;;
20476;SDS011;10397;50.948;11.092;2023-08-17T05:18:22;0.62;;;0.50;;
20476;SDS011;10397;50.948;11.092;2023-08-17T05:20:53;3.75;;;0.50;;
20476;SDS011;10397;50.948;11.092;2023-08-17T05:23:24;1.07;;;0.60;;
20476;SDS011;10397;50.948;11.092;2023-08-17T05:25:55;1.52;;;0.60;;
20476;SDS011;10397;50.948;11.092;2023-08-17T05:28:26;0.90;;;0.60;;
20476;SDS011;10397;50.948;11.092;2023-08-17T05:31:02;1.52;;;0.60;;
20476;SDS011;10397;50.948;11.092;2023-08-17T05:33:28;1.87;;;0.70;;
20476;SDS011;10397;50.948;11.092;2023-08-17T05:35:59;1.37;;;0.70;;
20476;SDS011;10397;50.948;11.092;2023-08-17T05:38:30;2.13;;;0.70;;
20476;SDS011;10397;50.948;11.092;2023-08-17T05:41:01;0.88;;;0.50;;
20476;SDS011;10397;50.948;11.092;2023-08-17T05:43:32;0.95;;;0.55;;
20476;SDS011;10397;50.948;11.092;2023-08-17T05:46:03;1.40;;;0.57;;
20476;SDS011;10397;50.948;11.092;2023-08-17T05:48:35;1.05;;;0.78;;
20476;SDS011;10397;50.948;11.092;2023-08-17T05:51:06;2.50;;;0.70;;
20476;SDS011;10397;50.948;11.092;2023-08-17T05:53:37;2.15;;;0.82;;
20476;SDS011;10397;50.948;11.092;2023-08-17T05:56:08;1.92;;;0.80;;
20476;SDS011;10397;50.948;11.092;2023-08-17T05:58:39;1.70;;;0.70;;
20476;SDS011;10397;50.948;11.092;2023-08-17T06:01:10;2.02;;;0.80;;
20476;SDS011;10397;50.948;11.092;2023-08-17T06:03:41;1.90;;;0.77;;
20476;SDS011;10397;50.948;11.092;2023-08-17T06:06:12;5.72;;;0.90;;
20476;SDS011;10397;50.948;11.092;2023-08-17T06:08:44;2.90;;;0.98;;
20476;SDS011;10397;50.948;11.092;2023-08-17T06:11:14;2.40;;;0.70;;
20476;SDS011;10397;50.948;11.092;2023-08-17T06:13:45;1.32;;;0.90;;
20476;SDS011;10397;50.948;11.092;2023-08-17T06:16:16;1.75;;;1.10;;
20476;SDS011;10397;50.948;11.092;2023-08-17T06:18:48;2.70;;;1.05;;
20476;SDS011;10397;50.948;11.092;2023-08-17T06:21:19;1.95;;;0.90;;
20476;SDS011;10397;50.948;11.092;2023-08-17T06:23:50;2.95;;;0.93;;
20476;SDS011;10397;50.948;11.092;2023-08-17T06:26:22;4.42;;;1.27;;
20476;SDS011;10397;50.948;11.092;2023-08-17T06:28:53;0.90;;;0.80;;
20476;SDS011;10397;50.948;11.092;2023-08-17T06:31:24;1.92;;;1.02;;
20476;SDS011;10397;50.948;11.092;2023-08-17T06:33:56;1.40;;;0.98;;
20476;SDS011;10397;50.948;11.092;2023-08-17T06:36:30;1.60;;;0.60;;
20476;SDS011;10397;50.948;11.092;2023-08-17T06:38:57;1.45;;;0.90;;
20476;SDS011;10397;50.948;11.092;2023-08-17T06:41:27;1.03;;;0.70;;
20476;SDS011;10397;50.948;11.092;2023-08-17T06:43:59;1.80;;;1.10;;
20476;SDS011;10397;50.948;11.092;2023-08-17T06:46:30;3.62;;;1.02;;
20476;SDS011;10397;50.948;11.092;2023-08-17T06:49:01;5.42;;;1.17;;
20476;SDS011;10397;50.948;11.092;2023-08-17T06:51:32;3.17;;;1.02;;
20476;SDS011;10397;50.948;11.092;2023-08-17T06:54:04;3.07;;;0.90;;
20476;SDS011;10397;50.948;11.092;2023-08-17T06:56:34;2.00;;;0.88;;
20476;SDS011;10397;50.948;11.092;2023-08-17T06:59:06;3.70;;;1.02;;
20476;SDS011;10397;50.948;11.092;2023-08-17T07:01:36;3.63;;;0.90;;
20476;SDS011;10397;50.948;11.092;2023-08-17T07:04:08;1.80;;;1.00;;
20476;SDS011;10397;50.948;11.092;2023-08-17T07:06:39;3.80;;;0.90;;
20476;SDS011;10397;50.948;11.092;2023-08-17T07:09:09;4.10;;;0.97;;
20476;SDS011;10397;50.948;11.092;2023-08-17T07:11:40;2.47;;;1.00;;
20476;SDS011;10397;50.948;11.092;2023-08-17T07:14:11;1.52;;;1.27;;
20476;SDS011;10397;50.948;11.092;2023-08-17T07:16:42;1.00;;;0.88;;
20476;SDS011;10397;50.948;11.092;2023-08-17T07:19:13;1.67;;;0.93;;
20476;SDS011;10397;50.948;11.092;2023-08-17T07:21:44;3.27;;;1.27;;
20476;SDS011;10397;50.948;11.092;2023-08-17T07:24:15;2.27;;;1.40;;
20476;SDS011;10397;50.948;11.092;2023-08-17T07:26:46;4.08;;;1.32;;
20476;SDS011;10397;50.948;11.092;2023-08-17T07:29:17;3.40;;;1.80;;
20476;SDS011;10397;50.948;11.092;2023-08-17T07:31:48;2.67;;;1.95;;
20476;SDS011;10397;50.948;11.092;2023-08-17T07:34:19;3.80;;;1.80;;
20476;SDS011;10397;50.948;11.092;2023-08-17T07:36:50;3.47;;;1.60;;
20476;SDS011;10397;50.948;11.092;2023-08-17T07:39:21;3.55;;;1.52;;
20476;SDS011;10397;50.948;11.092;2023-08-17T07:41:52;2.23;;;1.67;;
20476;SDS011;10397;50.948;11.092;2023-08-17T07:44:23;7.97;;;1.30;;
20476;SDS011;10397;50.948;11.092;2023-08-17T07:46:53;3.07;;;1.63;;
20476;SDS011;10397;50.948;11.092;2023-08-17T07:49:25;2.08;;;1.45;;
20476;SDS011;10397;50.948;11.092;2023-08-17T07:51:55;1.95;;;1.32;;
20476;SDS011;10397;50.948;11.092;2023-08-17T07:54:27;2.30;;;1.65;;
20476;SDS011;10397;50.948;11.092;2023-08-17T07:56:58;1.72;;;1.40;;
20476;SDS011;10397;50.948;11.092;2023-08-17T07:59:29;1.80;;;1.70;;
20476;SDS011;10397;50.948;11.092;2023-08-17T08:01:59;2.00;;;1.90;;
20476;SDS011;10397;50.948;11.092;2023-08-17T08:04:30;2.53;;;2.00;;
20476;SDS011;10397;50.948;11.092;2023-08-17T08:07:01;3.90;;;2.40;;
20476;SDS011;10397;50.948;11.092;2023-08-17T08:09:32;2.57;;;2.37;;
20476;SDS011;10397;50.948;11.092;2023-08-17T08:12:03;3.35;;;2.60;;
20476;SDS011;10397;50.948;11.092;2023-08-17T08:14:34;3.10;;;2.80;;
20476;SDS011;10397;50.948;11.092;2023-08-17T08:17:04;3.30;;;3.00;;
20476;SDS011;10397;50.948;11.092;2023-08-17T08:19:35;4.97;;;2.80;;
20476;SDS011;10397;50.948;11.092;2023-08-17T08:22:06;2.65;;;2.45;;
20476;SDS011;10397;50.948;11.092;2023-08-17T08:24:38;2.58;;;2.37;;
20476;SDS011;10397;50.948;11.092;2023-08-17T08:27:09;3.77;;;3.47;;
20476;SDS011;10397;50.948;11.092;2023-08-17T08:29:40;4.55;;;2.65;;
20476;SDS011;10397;50.948;11.092;2023-08-17T08:32:11;4.05;;;2.77;;
20476;SDS011;10397;50.948;11.092;2023-08-17T08:34:41;4.80;;;3.20;;
20476;SDS011;10397;50.948;11.092;2023-08-17T08:37:12;3.65;;;2.65;;
20476;SDS011;10397;50.948;11.092;2023-08-17T08:39:49;3.57;;;3.17;;
20476;SDS011;10397;50.948;11.092;2023-08-17T08:42:19;4.67;;;2.80;;
20476;SDS011;10397;50.948;11.092;2023-08-17T08:44:50;2.95;;;2.70;;
20476;SDS011;10397;50.948;11.092;2023-08-17T08:47:22;6.80;;;3.37;;
20476;SDS011;10397;50.948;11.092;2023-08-17T08:49:59;3.43;;;3.13;;
20476;SDS011;10397;50.948;11.092;2023-08-17T08:52:36;3.60;;;2.70;;
20476;SDS011;10397;50.948;11.092;2023-08-17T08:55:03;2.65;;;2.45;;
20476;SDS011;10397;50.948;11.092;2023-08-17T08:57:35;4.80;;;2.50;;
20476;SDS011;10397;50.948;11.092;2023-08-17T09:00:07;4.22;;;2.80;;
20476;SDS011;10397;50.948;11.092;2023-08-17T09:02:37;4.23;;;2.97;;
20476;SDS011;10397;50.948;11.092;2023-08-17T09:05:09;2.60;;;2.40;;
20476;SDS011;10397;50.948;11.092;2023-08-17T09:07:39;3.10;;;2.90;;
20476;SDS011;10397;50.948;11.092;2023-08-17T09:10:10;2.83;;;2.62;;
20476;SDS011;10397;50.948;11.092;2023-08-17T09:12:41;3.92;;;2.75;;
20476;SDS011;10397;50.948;11.092;2023-08-17T09:15:12;3.20;;;2.83;;
20476;SDS011;10397;50.948;11.092;2023-08-17T09:17:43;3.58;;;2.60;;
20476;SDS011;10397;50.948;11.092;2023-08-17T09:20:18;2.40;;;2.20;;
20476;SDS011;10397;50.948;11.092;2023-08-17T09:22:44;4.30;;;3.20;;
20476;SDS011;10397;50.948;11.092;2023-08-17T09:25:21;3.23;;;2.57;;
20476;SDS011;10397;50.948;11.092;2023-08-17T09:27:46;5.75;;;3.08;;
20476;SDS011;10397;50.948;11.092;2023-08-17T09:30:17;6.25;;;2.85;;
20476;SDS011;10397;50.948;11.092;2023-08-17T09:32:48;3.95;;;2.90;;
20476;SDS011;10397;50.948;11.092;2023-08-17T09:35:20;3.72;;;2.83;;
20476;SDS011;10397;50.948;11.092;2023-08-17T09:37:51;4.00;;;2.90;;
20476;SDS011;10397;50.948;11.092;2023-08-17T09:40:25;2.92;;;2.72;;
20476;SDS011;10397;50.948;11.092;2023-08-17T09:42:57;3.77;;;2.87;;
20476;SDS011;10397;50.948;11.092;2023-08-17T09:45:25;3.22;;;2.92;;
20476;SDS011;10397;50.948;11.092;2023-08-17T09:47:57;4.33;;;1.80;;
20476;SDS011;10397;50.948;11.092;2023-08-17T09:50:26;1.77;;;1.40;;
20476;SDS011;10397;50.948;11.092;2023-08-17T09:52:58;2.70;;;1.60;;
20476;SDS011;10397;50.948;11.092;2023-08-17T09:55:30;4.10;;;1.45;;
20476;SDS011;10397;50.948;11.092;2023-08-17T09:57:59;2.42;;;1.20;;
20476;SDS011;10397;50.948;11.092;2023-08-17T10:00:31;2.33;;;1.30;;
20476;SDS011;10397;50.948;11.092;2023-08-17T10:03:02;2.30;;;1.95;;
20476;SDS011;10397;50.948;11.092;2023-08-17T10:05:35;2.02;;;1.80;;
20476;SDS011;10397;50.948;11.092;2023-08-17T10:08:03;3.77;;;1.82;;
20476;SDS011;10397;50.948;11.092;2023-08-17T10:10:35;4.37;;;1.77;;
20476;SDS011;10397;50.948;11.092;2023-08-17T10:13:16;2.15;;;1.40;;
20476;SDS011;10397;50.948;11.092;2023-08-17T10:15:55;3.03;;;1.80;;
20476;SDS011;10397;50.948;11.092;2023-08-17T10:18:36;2.03;;;1.83;;
20476;SDS011;10397;50.948;11.092;2023-08-17T10:21:23;2.40;;;1.93;;
20476;SDS011;10397;50.948;11.092;2023-08-17T10:23:53;2.20;;;1.77;;
20476;SDS011;10397;50.948;11.092;2023-08-17T10:26:24;1.75;;;1.65;;
20476;SDS011;10397;50.948;11.092;2023-08-17T10:28:54;2.22;;;2.02;;
20476;SDS011;10397;50.948;11.092;2023-08-17T10:31:25;3.50;;;1.80;;
20476;SDS011;10397;50.948;11.092;2023-08-17T10:33:56;2.22;;;2.02;;
20476;SDS011;10397;50.948;11.092;2023-08-17T10:36:27;2.72;;;2.15;;
20476;SDS011;10397;50.948;11.092;2023-08-17T10:39:17;2.05;;;1.80;;
20476;SDS011;10397;50.948;11.092;2023-08-17T10:41:50;2.57;;;2.27;;
20476;SDS011;10397;50.948;11.092;2023-08-17T10:49:59;3.40;;;1.90;;
20476;SDS011;10397;50.948;11.092;2023-08-17T10:52:29;2.70;;;2.50;;
20476;SDS011;10397;50.948;11.092;2023-08-17T10:55:03;3.00;;;2.50;;
20476;SDS011;10397;50.948;11.092;2023-08-17T10:57:42;2.87;;;2.13;;
20476;SDS011;10397;50.948;11.092;2023-08-17T11:00:18;3.43;;;2.30;;
20476;SDS011;10397;50.948;11.092;2023-08-17T11:03:00;6.87;;;2.93;;
20476;SDS011;10397;50.948;11.092;2023-08-17T11:05:40;2.70;;;1.93;;
20476;SDS011;10397;50.948;11.092;2023-08-17T11:08:58;3.90;;;2.17;;
20476;SDS011;10397;50.948;11.092;2023-08-17T11:10:44;2.62;;;2.17;;
20476;SDS011;10397;50.948;11.092;2023-08-17T11:13:13;2.60;;;2.27;;
20476;SDS011;10397;50.948;11.092;2023-08-17T11:15:44;2.42;;;2.20;;
20476;SDS011;10397;50.948;11.092;2023-08-17T11:18:15;3.20;;;2.42;;
20476;SDS011;10397;50.948;11.092;2023-08-17T11:20:46;3.57;;;2.67;;
20476;SDS011;10397;50.948;11.092;2023-08-17T11:23:17;3.83;;;2.42;;
20476;SDS011;10397;50.948;11.092;2023-08-17T11:25:49;4.22;;;2.55;;
20476;SDS011;10397;50.948;11.092;2023-08-17T11:28:20;3.47;;;2.67;;
20476;SDS011;10397;50.948;11.092;2023-08-17T11:30:57;3.60;;;2.90;;
20476;SDS011;10397;50.948;11.092;2023-08-17T11:33:27;2.93;;;2.63;;
20476;SDS011;10397;50.948;11.092;2023-08-17T11:35:58;3.87;;;2.93;;
20476;SDS011;10397;50.948;11.092;2023-08-17T11:38:33;3.10;;;2.80;;
20476;SDS011;10397;50.948;11.092;2023-08-17T11:41:02;3.47;;;3.17;;
20476;SDS011;10397;50.948;11.092;2023-08-17T11:43:33;3.65;;;2.98;;
20476;SDS011;10397;50.948;11.092;2023-08-17T11:46:04;3.40;;;3.10;;
20476;SDS011;10397;50.948;11.092;2023-08-17T11:48:36;3.22;;;2.98;;
20476;SDS011;10397;50.948;11.092;2023-08-17T11:51:07;4.55;;;2.80;;
20476;SDS011;10397;50.948;11.092;2023-08-17T11:53:38;3.27;;;2.98;;
20476;SDS011;10397;50.948;11.092;2023-08-17T11:56:09;3.77;;;3.30;;
20476;SDS011;10397;50.948;11.092;2023-08-17T11:58:40;3.65;;;3.35;;
20476;SDS011;10397;50.948;11.092;2023-08-17T12:01:12;3.22;;;2.92;;
20476;SDS011;10397;50.948;11.092;2023-08-17T12:03:42;3.23;;;2.93;;
20476;SDS011;10397;50.948;11.092;2023-08-17T12:06:13;4.92;;;3.30;;
20476;SDS011;10397;50.948;11.092;2023-08-17T12:08:47;4.30;;;3.90;;
20476;SDS011;10397;50.948;11.092;2023-08-17T12:11:17;3.93;;;3.60;;
20476;SDS011;10397;50.948;11.092;2023-08-17T12:13:49;4.40;;;3.12;;
20476;SDS011;10397;50.948;11.092;2023-08-17T12:16:22;3.70;;;3.33;;
20476;SDS011;10397;50.948;11.092;2023-08-17T12:18:50;5.03;;;3.95;;
20476;SDS011;10397;50.948;11.092;2023-08-17T12:21:23;4.47;;;3.33;;
20476;SDS011;10397;50.948;11.092;2023-08-17T12:23:54;4.70;;;3.67;;
20476;SDS011;10397;50.948;11.092;2023-08-17T12:26:24;3.57;;;3.27;;
20476;SDS011;10397;50.948;11.092;2023-08-17T12:28:55;3.55;;;3.25;;
20476;SDS011;10397;50.948;11.092;2023-08-17T12:31:28;4.28;;;3.70;;
20476;SDS011;10397;50.948;11.092;2023-08-17T12:33:58;3.60;;;3.30;;
20476;SDS011;10397;50.948;11.092;2023-08-17T12:36:28;4.27;;;3.50;;
20476;SDS011;10397;50.948;11.092;2023-08-17T12:38:59;3.70;;;3.05;;
20476;SDS011;10397;50.948;11.092;2023-08-17T12:41:30;4.90;;;3.47;;
20476;SDS011;10397;50.948;11.092;2023-08-17T12:44:00;4.40;;;4.00;;
20476;SDS011;10397;50.948;11.092;2023-08-17T12:46:32;4.33;;;3.40;;
20476;SDS011;10397;50.948;11.092;2023-08-17T12:49:03;3.70;;;3.03;;
20476;SDS011;10397;50.948;11.092;2023-08-17T12:51:34;4.05;;;3.65;;
20476;SDS011;10397;50.948;11.092;2023-08-17T12:54:05;3.57;;;3.23;;
20476;SDS011;10397;50.948;11.092;2023-08-17T12:56:36;3.52;;;3.22;;
20476;SDS011;10397;50.948;11.092;2023-08-17T12:59:06;6.03;;;3.60;;
20476;SDS011;10397;50.948;11.092;2023-08-17T13:01:38;3.77;;;3.47;;
20476;SDS011;10397;50.948;11.092;2023-08-17T13:04:08;3.63;;;3.30;;
20476;SDS011;10397;50.948;11.092;2023-08-17T13:06:40;7.03;;;3.33;;
20476;SDS011;10397;50.948;11.092;2023-08-17T13:09:10;4.27;;;3.40;;
20476;SDS011;10397;50.948;11.092;2023-08-17T13:11:42;6.60;;;3.83;;
20476;SDS011;10397;50.948;11.092;2023-08-17T13:14:14;5.60;;;3.65;;
20476;SDS011;10397;50.948;11.092;2023-08-17T13:16:46;3.93;;;3.63;;
20476;SDS011;10397;50.948;11.092;2023-08-17T13:19:17;4.92;;;3.33;;
20476;SDS011;10397;50.948;11.092;2023-08-17T13:21:48;4.12;;;3.72;;
20476;SDS011;10397;50.948;11.092;2023-08-17T13:24:20;4.58;;;3.85;;
20476;SDS011;10397;50.948;11.092;2023-08-17T13:26:51;3.85;;;3.55;;
20476;SDS011;10397;50.948;11.092;2023-08-17T13:29:22;4.28;;;3.60;;
20476;SDS011;10397;50.948;11.092;2023-08-17T13:31:53;4.25;;;3.45;;
20476;SDS011;10397;50.948;11.092;2023-08-17T13:34:24;4.60;;;4.07;;
20476;SDS011;10397;50.948;11.092;2023-08-17T13:36:54;3.47;;;3.20;;
20476;SDS011;10397;50.948;11.092;2023-08-17T13:39:26;4.00;;;3.70;;
20476;SDS011;10397;50.948;11.092;2023-08-17T13:41:57;3.80;;;3.50;;
20476;SDS011;10397;50.948;11.092;2023-08-17T13:44:28;5.40;;;4.00;;
20476;SDS011;10397;50.948;11.092;2023-08-17T13:47:00;5.45;;;3.83;;
20476;SDS011;10397;50.948;11.092;2023-08-17T13:49:31;5.72;;;3.98;;
20476;SDS011;10397;50.948;11.092;2023-08-17T13:52:02;4.83;;;3.72;;
20476;SDS011;10397;50.948;11.092;2023-08-17T13:54:33;3.42;;;3.12;;
20476;SDS011;10397;50.948;11.092;2023-08-17T13:57:04;3.60;;;3.23;;
20476;SDS011;10397;50.948;11.092;2023-08-17T13:59:36;4.25;;;3.85;;
20476;SDS011;10397;50.948;11.092;2023-08-17T14:02:07;4.25;;;3.77;;
20476;SDS011;10397;50.948;11.092;2023-08-17T14:04:39;4.17;;;3.87;;
20476;SDS011;10397;50.948;11.092;2023-08-17T14:07:10;4.62;;;4.33;;
20476;SDS011;10397;50.948;11.092;2023-08-17T14:09:40;4.73;;;4.20;;
20476;SDS011;10397;50.948;11.092;2023-08-17T14:12:11;4.70;;;4.30;;
20476;SDS011;10397;50.948;11.092;2023-08-17T14:14:43;4.22;;;3.92;;
20476;SDS011;10397;50.948;11.092;2023-08-17T14:17:14;4.80;;;4.05;;
20476;SDS011;10397;50.948;11.092;2023-08-17T14:19:45;5.22;;;4.83;;
20476;SDS011;10397;50.948;11.092;2023-08-17T14:22:17;5.67;;;4.47;;
20476;SDS011;10397;50.948;11.092;2023-08-17T14:24:48;4.97;;;4.47;;
20476;SDS011;10397;50.948;11.092;2023-08-17T14:27:19;5.00;;;4.65;;
20476;SDS011;10397;50.948;11.092;2023-08-17T14:29:51;4.03;;;3.72;;
20476;SDS011;10397;50.948;11.092;2023-08-17T14:32:22;4.50;;;4.20;;
20476;SDS011;10397;50.948;11.092;2023-08-17T14:34:54;4.62;;;4.05;;
20476;SDS011;10397;50.948;11.092;2023-08-17T14:37:25;5.15;;;4.40;;
20476;SDS011;10397;50.948;11.092;2023-08-17T14:39:56;4.78;;;4.20;;
20476;SDS011;10397;50.948;11.092;2023-08-17T14:42:27;5.05;;;4.55;;
20476;SDS011;10397;50.948;11.092;2023-08-17T14:44:59;5.37;;;4.97;;
20476;SDS011;10397;50.948;11.092;2023-08-17T14:47:30;6.33;;;5.05;;
20476;SDS011;10397;50.948;11.092;2023-08-17T14:50:02;5.00;;;4.50;;
20476;SDS011;10397;50.948;11.092;2023-08-17T14:52:33;4.72;;;4.42;;
20476;SDS011;10397;50.948;11.092;2023-08-17T14:55:03;5.83;;;5.03;;
20476;SDS011;10397;50.948;11.092;2023-08-17T14:57:34;5.22;;;4.75;;
20476;SDS011;10397;50.948;11.092;2023-08-17T15:00:05;5.10;;;4.67;;
20476;SDS011;10397;50.948;11.092;2023-08-17T15:02:37;5.60;;;5.05;;